createdAt,value
2022-08-05T00:00:46.223Z,150934.63
2022-08-05T00:01:49.636Z,150827.19
2022-08-05T00:02:52.391Z,150812.56
2022-08-05T00:03:54.666Z,150783.25
2022-08-05T00:04:59.494Z,150777.16
2022-08-05T00:06:21.195Z,129209.44
2022-08-05T00:08:00.495Z,106458.47
2022-08-05T00:08:46.680Z,96280.06
2022-08-05T00:09:49.677Z,90864.13
2022-08-05T00:10:51.880Z,75994.69
2022-08-05T00:11:56.167Z,66611.75
2022-08-05T00:13:02.087Z,68310.94
2022-08-05T00:14:13.104Z,74029.13
2022-08-05T00:15:55.979Z,73026.03
2022-08-05T00:16:52.856Z,66647.41
2022-08-05T00:17:55.976Z,75727.72
2022-08-05T00:18:58.160Z,79088.91
2022-08-05T00:20:02.769Z,68336.25
2022-08-05T00:21:06.814Z,59290.97
2022-08-05T00:22:11.466Z,64643.59
2022-08-05T00:23:13.888Z,65982.56
2022-08-05T00:24:24.091Z,72666.06
2022-08-05T00:25:27.167Z,65304.28
2022-08-05T00:26:50.848Z,69719.31
2022-08-05T00:27:57.578Z,72356.66
2022-08-05T00:29:00.432Z,70682.31
2022-08-05T00:30:05.647Z,69364.88
2022-08-05T00:31:14.256Z,78079.72
2022-08-05T00:32:16.501Z,72021.97
2022-08-05T00:34:54.152Z,72019.69
2022-08-05T00:35:05.709Z,70023.09
2022-08-05T00:36:16.018Z,66327.78
2022-08-05T00:37:27.733Z,70347.72
2022-08-05T00:38:49.588Z,64978.31
2022-08-05T00:39:58.132Z,60957.63
2022-08-05T00:41:01.535Z,64302.84
2022-08-05T00:42:04.052Z,63963.19
2022-08-05T00:43:07.522Z,61281.94
2022-08-05T00:44:09.934Z,55245.34
2022-08-05T00:45:13.585Z,49907.78
2022-08-05T00:46:15.839Z,52572.97
2022-08-05T00:47:18.249Z,48902.53
2022-08-05T00:48:27.501Z,49586.25
2022-08-05T00:49:44.620Z,50908.66
2022-08-05T00:50:54.130Z,46222.00
2022-08-05T00:51:56.317Z,40219.22
2022-08-05T00:52:59.606Z,41562.47
2022-08-05T00:54:02.781Z,42227.72
2022-08-05T00:55:05.810Z,44569.31
2022-08-05T00:56:08.297Z,44233.53
2022-08-05T00:57:10.557Z,43563.84
2022-08-05T00:58:14.463Z,41908.47
2022-08-05T00:59:16.697Z,42234.56
2022-08-05T01:00:19.972Z,45900.66
2022-08-05T01:01:42.226Z,40554.59
2022-08-05T01:02:45.234Z,44220.56
2022-08-05T01:03:49.924Z,44214.06
2022-08-05T01:04:52.279Z,46556.91
2022-08-05T01:05:55.048Z,44882.25
2022-08-05T01:06:57.281Z,45558.38
2022-08-05T01:08:39.826Z,43891.38
2022-08-05T01:09:23.297Z,45556.97
2022-08-05T01:10:34.719Z,45922.00
2022-08-05T01:11:39.504Z,47914.44
2022-08-05T01:13:00.413Z,48595.22
2022-08-05T01:14:47.730Z,51942.16
2022-08-05T01:15:56.623Z,49927.94
2022-08-05T01:17:05.503Z,46256.41
2022-08-05T01:18:14.395Z,45920.22
2022-08-05T01:19:57.042Z,45244.22
2022-08-05T01:20:58.387Z,46561.22
2022-08-05T01:22:24.196Z,47226.47
2022-08-05T01:23:34.723Z,47546.34
2022-08-05T01:25:05.821Z,44249.25
2022-08-05T01:26:29.833Z,45233.72
2022-08-05T01:28:18.330Z,37900.22
2022-08-05T01:29:31.570Z,36904.84
2022-08-05T01:30:52.434Z,36237.25
2022-08-05T01:32:02.247Z,36239.44
2022-08-05T01:33:09.316Z,34575.97
2022-08-05T01:34:26.690Z,35585.59
2022-08-05T01:35:52.107Z,37249.81
2022-08-05T01:37:02.800Z,36921.75
2022-08-05T01:38:06.811Z,40247.66
2022-08-05T01:39:10.853Z,41250.34
2022-08-05T01:40:17.906Z,41588.09
2022-08-05T01:41:22.690Z,44913.16
2022-08-05T01:42:30.388Z,50253.75
2022-08-05T01:43:34.447Z,50892.03
2022-08-05T01:44:37.525Z,46896.22
2022-08-05T01:45:43.079Z,43878.16
2022-08-05T01:46:46.632Z,41869.09
2022-08-05T01:47:50.469Z,38889.72
2022-08-05T01:48:58.872Z,37214.19
2022-08-05T01:50:05.977Z,37229.31
2022-08-05T01:51:12.294Z,35892.53
2022-08-05T01:52:17.821Z,39877.44
2022-08-05T01:53:54.753Z,35218.47
2022-08-05T01:54:58.622Z,31907.06
2022-08-05T01:56:04.818Z,34223.13
2022-08-05T01:58:13.190Z,32892.75
2022-08-05T01:58:40.870Z,30893.59
2022-08-05T01:59:57.663Z,27250.69
2022-08-05T02:01:02.955Z,27573.69
2022-08-05T02:02:10.565Z,21943.59
2022-08-05T02:03:31.538Z,20624.28
2022-08-05T02:04:38.201Z,20623.69
2022-08-05T02:05:45.006Z,20953.00
2022-08-05T02:06:50.948Z,23270.88
2022-08-05T02:07:59.925Z,22275.09
2022-08-05T02:09:05.004Z,23604.66
2022-08-05T02:10:08.754Z,24596.72
2022-08-05T02:11:14.973Z,24940.75
2022-08-05T02:12:34.584Z,28590.50
2022-08-05T02:13:56.565Z,32917.72
2022-08-05T02:15:19.567Z,36221.72
2022-08-05T02:16:47.030Z,33916.13
2022-08-05T02:18:36.952Z,32586.81
2022-08-05T02:19:51.000Z,33245.63
2022-08-05T02:20:58.728Z,32906.47
2022-08-05T02:22:27.289Z,35241.59
2022-08-05T02:23:37.064Z,34239.81
2022-08-05T02:24:46.625Z,35235.41
2022-08-05T02:25:54.247Z,36221.44
2022-08-05T02:27:09.085Z,33233.25
2022-08-05T02:28:15.047Z,34899.44
2022-08-05T02:29:59.993Z,33565.25
2022-08-05T02:31:02.303Z,32247.06
2022-08-05T02:32:09.603Z,31911.88
2022-08-05T02:33:24.373Z,30916.69
2022-08-05T02:34:38.791Z,32558.13
2022-08-05T02:35:55.882Z,30569.31
2022-08-05T02:37:04.345Z,29579.13
2022-08-05T02:38:09.556Z,29900.03
2022-08-05T02:39:15.203Z,28572.47
2022-08-05T02:40:18.690Z,26908.16
2022-08-05T02:41:23.688Z,24599.44
2022-08-05T02:42:36.088Z,26920.44
2022-08-05T02:44:02.837Z,24267.63
2022-08-05T02:45:06.556Z,25591.31
2022-08-05T02:46:09.986Z,26251.47
2022-08-05T02:47:20.670Z,25589.97
2022-08-05T02:48:29.527Z,25596.09
2022-08-05T02:49:37.692Z,27585.25
2022-08-05T02:50:47.174Z,25261.13
2022-08-05T02:52:03.540Z,27586.09
2022-08-05T02:53:06.669Z,26257.94
2022-08-05T02:54:34.451Z,27922.03
2022-08-05T02:55:52.077Z,27587.75
2022-08-05T02:56:58.943Z,28590.94
2022-08-05T02:58:09.192Z,30246.03
2022-08-05T02:59:17.226Z,29923.47
2022-08-05T03:00:20.913Z,31241.81
2022-08-05T03:01:25.339Z,32234.59
2022-08-05T03:02:35.042Z,26926.25
2022-08-05T03:04:02.666Z,27909.91
2022-08-05T03:05:05.026Z,26589.75
2022-08-05T03:06:55.502Z,27585.25
2022-08-05T03:08:01.007Z,30242.16
2022-08-05T03:08:57.806Z,30573.94
2022-08-05T03:10:02.971Z,31571.06
2022-08-05T03:11:56.548Z,30900.13
2022-08-05T03:12:39.934Z,30251.97
2022-08-05T03:13:52.223Z,31240.16
2022-08-05T03:15:09.179Z,30252.19
2022-08-05T03:16:11.736Z,33234.00
2022-08-05T03:17:18.022Z,33555.31
2022-08-05T03:18:30.072Z,31235.19
2022-08-05T03:19:34.566Z,31569.88
2022-08-05T03:20:38.920Z,30569.31
2022-08-05T03:21:50.851Z,30230.28
2022-08-05T03:22:55.217Z,28235.88
2022-08-05T03:24:01.163Z,24596.34
2022-08-05T03:25:31.753Z,26909.56
2022-08-05T03:26:31.828Z,24922.41
2022-08-05T03:27:58.905Z,26915.00
2022-08-05T03:28:57.139Z,28575.91
2022-08-05T03:30:08.144Z,28909.84
2022-08-05T03:31:55.391Z,29913.09
2022-08-05T03:32:34.741Z,31905.38
2022-08-05T03:33:52.807Z,32231.91
2022-08-05T03:34:55.522Z,31903.66
2022-08-05T03:35:58.759Z,32240.25
2022-08-05T03:37:02.920Z,33572.91
2022-08-05T03:38:05.210Z,37892.66
2022-08-05T03:39:12.827Z,37572.06
2022-08-05T03:40:31.090Z,38887.34
2022-08-05T03:41:38.687Z,37888.59
2022-08-05T03:42:52.144Z,38217.75
2022-08-05T03:44:09.902Z,38541.56
2022-08-05T03:45:21.544Z,34227.28
2022-08-05T03:46:26.853Z,33896.28
2022-08-05T03:47:35.473Z,33222.88
2022-08-05T03:48:45.375Z,34872.31
2022-08-05T03:49:51.425Z,34528.56
2022-08-05T03:52:37.213Z,27909.69
2022-08-05T03:55:00.045Z,25592.66
2022-08-05T03:55:53.225Z,28905.50
2022-08-05T03:56:09.264Z,20942.00
2022-08-05T03:57:17.884Z,20275.78
2022-08-05T03:58:27.163Z,18631.41
2022-08-05T03:59:47.262Z,20615.75
2022-08-05T04:01:01.641Z,20287.84
2022-08-05T04:02:12.192Z,21943.94
2022-08-05T04:03:26.680Z,21946.03
2022-08-05T04:04:32.754Z,25258.88
2022-08-05T04:05:38.584Z,24267.63
2022-08-05T04:06:47.729Z,25255.88
2022-08-05T04:07:57.454Z,23604.81
2022-08-05T04:09:02.037Z,26592.16
2022-08-05T04:10:05.075Z,28905.06
2022-08-05T04:11:08.706Z,28903.97
2022-08-05T04:12:24.753Z,28234.41
2022-08-05T04:13:51.059Z,26903.72
2022-08-05T04:14:50.695Z,23261.28
2022-08-05T04:16:04.800Z,23926.13
2022-08-05T04:17:09.009Z,24263.50
2022-08-05T04:18:20.515Z,25251.38
2022-08-05T04:19:24.822Z,26904.53
2022-08-05T04:20:27.055Z,25254.94
2022-08-05T04:22:09.546Z,25588.84
2022-08-05T04:22:52.128Z,26246.56
2022-08-05T04:23:58.426Z,25255.31
2022-08-05T04:25:09.479Z,28244.56
2022-08-05T04:26:17.326Z,26266.16
2022-08-05T04:27:33.276Z,29907.47
2022-08-05T04:28:51.039Z,29568.66
2022-08-05T04:29:54.200Z,29220.56
2022-08-05T04:30:56.859Z,24588.50
2022-08-05T04:32:00.178Z,26241.69
2022-08-05T04:33:02.681Z,24914.84
2022-08-05T04:34:31.307Z,24254.88
2022-08-05T04:35:27.045Z,24926.13
2022-08-05T04:36:50.208Z,24931.47
2022-08-05T04:38:02.933Z,27915.34
2022-08-05T04:39:08.955Z,27920.38
2022-08-05T04:40:11.580Z,28576.53
2022-08-05T04:41:13.813Z,28241.38
2022-08-05T04:42:16.046Z,28569.03
2022-08-05T04:43:18.266Z,26583.41
2022-08-05T04:44:29.210Z,27910.75
2022-08-05T04:45:48.798Z,29243.00
2022-08-05T04:46:51.652Z,27919.53
2022-08-05T04:47:55.044Z,30562.84
2022-08-05T04:48:59.815Z,29245.00
2022-08-05T04:50:11.340Z,29918.06
2022-08-05T04:51:13.924Z,32579.38
2022-08-05T04:52:16.317Z,32917.97
2022-08-05T04:53:19.140Z,35918.31
2022-08-05T04:54:22.932Z,38904.63
2022-08-05T04:56:15.419Z,37244.97
2022-08-05T04:56:48.788Z,36587.78
2022-08-05T04:57:51.601Z,35925.72
2022-08-05T04:58:56.619Z,37593.34
2022-08-05T04:59:59.021Z,39255.66
2022-08-05T05:01:01.311Z,42254.75
2022-08-05T05:02:07.058Z,48240.72
2022-08-05T05:03:25.728Z,46238.47
2022-08-05T05:04:48.065Z,45247.75
2022-08-05T05:06:36.133Z,44910.03
2022-08-05T05:07:17.358Z,41579.75
2022-08-05T05:08:26.714Z,42887.09
2022-08-05T05:09:32.755Z,38233.31
2022-08-05T05:10:47.370Z,39907.19
2022-08-05T05:12:02.912Z,37907.78
2022-08-05T05:13:05.446Z,42573.03
2022-08-05T05:14:08.630Z,42237.81
2022-08-05T05:15:11.114Z,46582.53
2022-08-05T05:16:13.283Z,47912.56
2022-08-05T05:17:23.279Z,44247.22
2022-08-05T05:18:31.638Z,45244.56
2022-08-05T05:19:44.360Z,44919.06
2022-08-05T05:20:50.229Z,46251.38
2022-08-05T05:21:55.406Z,45914.19
2022-08-05T05:22:59.177Z,47920.75
2022-08-05T05:24:03.926Z,46576.38
2022-08-05T05:25:16.670Z,45917.03
2022-08-05T05:26:19.723Z,51266.19
2022-08-05T05:27:44.524Z,56630.41
2022-08-05T05:28:48.371Z,54277.41
2022-08-05T05:30:04.434Z,54951.41
2022-08-05T05:31:08.781Z,58633.84
2022-08-05T05:32:12.494Z,60965.28
2022-08-05T05:33:17.900Z,56611.81
2022-08-05T05:34:27.102Z,56947.25
2022-08-05T05:35:34.493Z,52272.75
2022-08-05T05:36:40.408Z,55600.91
2022-08-05T05:37:59.574Z,49290.63
2022-08-05T05:39:03.767Z,53600.31
2022-08-05T05:40:07.636Z,50275.28
2022-08-05T05:41:09.869Z,53607.00
2022-08-05T05:42:14.507Z,54276.13
2022-08-05T05:43:22.198Z,55283.75
2022-08-05T05:44:44.472Z,56276.81
2022-08-05T05:45:48.559Z,59630.47
2022-08-05T05:46:51.184Z,59955.44
2022-08-05T05:48:06.443Z,57952.97
2022-08-05T05:49:22.568Z,64645.13
2022-08-05T05:50:25.860Z,69684.13
2022-08-05T05:51:28.300Z,75049.53
2022-08-05T05:52:33.173Z,78406.16
2022-08-05T05:53:45.939Z,80424.03
2022-08-05T05:55:00.790Z,74704.59
2022-08-05T05:56:04.312Z,81428.50
2022-08-05T05:57:13.570Z,80081.19
2022-08-05T05:58:31.428Z,85116.19
2022-08-05T05:59:40.421Z,86484.97
2022-08-05T06:00:45.888Z,82445.53
2022-08-05T06:01:57.198Z,87847.19
2022-08-05T06:03:01.716Z,91915.84
2022-08-05T06:04:04.175Z,92920.63
2022-08-05T06:05:16.574Z,86897.31
2022-08-05T06:06:19.285Z,92925.81
2022-08-05T06:07:41.695Z,94265.44
2022-08-05T06:08:44.601Z,89900.84
2022-08-05T06:10:00.535Z,94256.41
2022-08-05T06:11:04.969Z,84813.75
2022-08-05T06:12:09.738Z,88881.53
2022-08-05T06:13:14.269Z,94897.81
2022-08-05T06:14:16.488Z,85461.84
2022-08-05T06:15:24.041Z,88185.09
2022-08-05T06:16:28.883Z,90531.84
2022-08-05T06:17:53.111Z,93232.28
2022-08-05T06:18:55.978Z,93584.78
2022-08-05T06:20:03.125Z,94594.88
2022-08-05T06:21:05.364Z,96291.59
2022-08-05T06:22:27.034Z,88905.56
2022-08-05T06:23:43.553Z,92200.56
2022-08-05T06:24:48.213Z,85132.41
2022-08-05T06:26:12.400Z,87484.28
2022-08-05T06:28:09.106Z,80065.31
2022-08-05T06:28:36.882Z,85486.28
2022-08-05T06:29:51.968Z,86817.84
2022-08-05T06:31:01.549Z,88150.75
2022-08-05T06:32:25.233Z,82106.25
2022-08-05T06:34:06.109Z,82088.00
2022-08-05T06:34:56.531Z,87168.75
2022-08-05T06:36:03.448Z,86806.13
2022-08-05T06:37:10.319Z,79016.19
2022-08-05T06:38:14.656Z,79740.34
2022-08-05T06:39:18.341Z,82435.06
2022-08-05T06:40:27.951Z,83406.66
2022-08-05T06:41:34.833Z,81086.16
2022-08-05T06:42:43.479Z,83122.25
2022-08-05T06:43:58.694Z,83471.59
2022-08-05T06:45:05.601Z,85159.50
2022-08-05T06:46:11.180Z,83799.13
2022-08-05T06:47:29.898Z,82121.88
2022-08-05T06:48:54.619Z,86169.91
2022-08-05T06:50:01.864Z,88878.66
2022-08-05T06:51:09.588Z,87200.69
2022-08-05T06:52:37.007Z,87853.50
2022-08-05T06:53:39.130Z,81397.50
2022-08-05T06:54:41.654Z,74001.00
2022-08-05T06:55:43.914Z,75704.97
2022-08-05T06:56:55.041Z,75359.97
2022-08-05T06:58:29.826Z,75012.13
2022-08-05T06:59:38.545Z,69303.59
2022-08-05T07:00:41.326Z,67272.53
2022-08-05T07:01:43.647Z,55210.78
2022-08-05T07:02:48.442Z,51195.53
2022-08-05T07:03:56.238Z,46198.72
2022-08-05T07:04:58.406Z,48548.44
2022-08-05T07:06:06.234Z,50564.13
2022-08-05T07:07:17.104Z,46867.09
2022-08-05T07:08:27.849Z,50880.94
2022-08-05T07:09:32.375Z,48214.50
2022-08-05T07:10:53.294Z,48211.50
2022-08-05T07:11:56.353Z,40553.03
2022-08-05T07:13:39.515Z,43562.19
2022-08-05T07:15:02.474Z,44890.59
2022-08-05T07:17:56.196Z,36892.41
2022-08-05T07:17:59.255Z,41559.59
2022-08-05T07:19:06.042Z,42901.31
2022-08-05T07:20:32.150Z,42242.38
2022-08-05T07:22:00.795Z,40573.63
2022-08-05T07:22:54.639Z,36916.69
2022-08-05T07:23:57.186Z,41898.16
2022-08-05T07:25:23.775Z,39572.34
2022-08-05T07:26:26.373Z,34917.53
2022-08-05T07:27:56.404Z,38886.44
2022-08-05T07:28:51.313Z,34562.78
2022-08-05T07:30:25.508Z,34558.56
2022-08-05T07:31:15.758Z,37558.25
2022-08-05T07:32:17.899Z,33557.09
2022-08-05T07:33:36.949Z,32235.34
2022-08-05T07:34:42.267Z,34232.25
2022-08-05T07:36:02.372Z,34894.66
2022-08-05T07:37:08.315Z,32890.75
2022-08-05T07:38:26.464Z,31244.63
2022-08-05T07:40:04.112Z,33563.72
2022-08-05T07:41:00.318Z,32241.47
2022-08-05T07:42:14.160Z,31914.78
2022-08-05T07:43:20.850Z,35601.06
2022-08-05T07:44:23.274Z,37911.25
2022-08-05T07:45:56.639Z,39578.44
2022-08-05T07:46:49.497Z,42253.44
2022-08-05T07:47:55.766Z,42579.59
2022-08-05T07:49:04.878Z,40261.91
2022-08-05T07:50:08.461Z,41922.06
2022-08-05T07:51:23.398Z,44561.75
2022-08-05T07:52:37.843Z,40570.19
2022-08-05T07:53:50.593Z,41570.78
2022-08-05T07:54:53.390Z,40903.91
2022-08-05T07:56:06.203Z,40237.44
2022-08-05T07:57:42.071Z,40573.31
2022-08-05T07:58:54.908Z,37919.66
2022-08-05T08:00:01.647Z,38587.72
2022-08-05T08:01:14.106Z,43920.53
2022-08-05T08:02:18.249Z,41924.94
2022-08-05T08:03:21.550Z,39926.81
2022-08-05T08:04:38.200Z,38263.50
2022-08-05T08:05:47.632Z,37606.59
2022-08-05T08:06:52.046Z,48253.06
2022-08-05T08:08:00.116Z,40928.75
2022-08-05T08:09:03.845Z,40263.78
2022-08-05T08:10:08.170Z,38606.06
2022-08-05T08:11:10.700Z,38604.28
2022-08-05T08:12:37.378Z,39938.50
2022-08-05T08:13:43.009Z,44611.72
2022-08-05T08:14:51.613Z,48599.72
2022-08-05T08:16:49.754Z,45596.13
2022-08-05T08:17:16.629Z,44260.88
2022-08-05T08:18:20.796Z,40594.22
2022-08-05T08:20:21.454Z,41592.25
2022-08-05T08:21:02.713Z,42598.66
2022-08-05T08:22:07.590Z,40945.16
2022-08-05T08:24:02.764Z,43930.41
2022-08-05T08:24:51.022Z,47590.28
2022-08-05T08:26:00.485Z,41593.84
2022-08-05T08:27:06.983Z,48290.53
2022-08-05T08:28:18.467Z,45910.97
2022-08-05T08:30:03.673Z,44256.09
2022-08-05T08:30:53.906Z,42266.47
2022-08-05T08:31:56.685Z,37944.94
2022-08-05T08:33:04.470Z,42616.72
2022-08-05T08:34:10.559Z,39284.56
2022-08-05T08:35:13.358Z,39958.13
2022-08-05T08:36:49.069Z,38961.97
2022-08-05T08:37:38.186Z,40304.63
2022-08-05T08:38:53.398Z,53326.72
2022-08-05T08:39:55.892Z,53989.78
2022-08-05T08:40:59.114Z,53993.97
2022-08-05T08:42:02.505Z,48995.66
2022-08-05T08:44:54.655Z,54339.72
2022-08-05T08:45:20.485Z,58033.78
2022-08-05T08:45:57.469Z,57681.47
2022-08-05T08:47:02.629Z,57660.72
2022-08-05T08:48:22.235Z,48614.84
2022-08-05T08:50:12.806Z,43595.81
2022-08-05T08:51:22.427Z,37942.63
2022-08-05T08:52:24.166Z,43976.56
2022-08-05T08:53:28.852Z,47986.97
2022-08-05T08:54:32.031Z,53338.34
2022-08-05T08:56:04.510Z,51000.69
2022-08-05T08:56:57.516Z,62035.41
2022-08-05T08:58:03.485Z,64422.78
2022-08-05T08:59:14.744Z,65696.88
2022-08-05T09:00:21.935Z,53639.63
2022-08-05T09:01:24.379Z,51960.38
2022-08-05T09:02:28.056Z,46950.03
2022-08-05T09:03:45.404Z,44272.19
2022-08-05T09:05:16.093Z,54648.94
2022-08-05T09:06:11.555Z,58317.34
2022-08-05T09:07:19.657Z,54668.56
2022-08-05T09:08:31.596Z,60718.41
2022-08-05T09:09:35.889Z,66795.53
2022-08-05T09:10:46.834Z,64455.69
2022-08-05T09:11:51.727Z,67807.19
2022-08-05T09:13:04.508Z,66195.16
2022-08-05T09:14:54.771Z,90802.44
2022-08-05T09:15:31.579Z,99309.09
2022-08-05T09:16:40.106Z,97626.50
2022-08-05T09:17:53.086Z,113279.72
2022-08-05T09:18:55.639Z,120977.34
2022-08-05T09:20:02.759Z,89768.84
2022-08-05T09:21:11.628Z,122736.72
2022-08-05T09:22:31.619Z,128644.28
2022-08-05T09:23:37.255Z,128957.06
2022-08-05T09:24:58.245Z,151309.63
2022-08-05T09:26:20.896Z,151213.06
2022-08-05T09:28:04.810Z,151218.97
2022-08-05T09:29:04.355Z,151275.41
2022-08-05T09:30:07.335Z,149981.25
2022-08-05T09:32:38.797Z,133430.56
2022-08-05T09:32:42.205Z,151225.25
2022-08-05T09:34:01.556Z,138954.56
2022-08-05T09:35:26.673Z,141376.41
2022-08-05T09:36:59.700Z,124618.31
2022-08-05T09:38:12.415Z,151246.03
2022-08-05T09:39:22.477Z,142094.75
2022-08-05T09:40:38.091Z,129617.75
2022-08-05T09:42:01.463Z,151170.28
2022-08-05T09:43:10.363Z,130835.50
2022-08-05T09:44:33.051Z,116574.19
2022-08-05T09:46:06.697Z,127846.56
2022-08-05T09:47:22.522Z,143589.53
2022-08-05T09:48:26.976Z,119677.91
2022-08-05T09:49:54.668Z,130280.44
2022-08-05T09:51:15.300Z,132465.78
2022-08-05T09:52:19.311Z,151288.84
2022-08-05T09:53:26.166Z,128702.16
2022-08-05T09:54:53.499Z,104912.06
2022-08-05T09:56:04.564Z,151480.72
2022-08-05T09:57:23.231Z,151400.00
2022-08-05T09:58:29.033Z,151440.41
2022-08-05T09:59:34.869Z,151379.25
2022-08-05T10:00:39.515Z,151369.50
2022-08-05T10:01:45.752Z,151283.94
2022-08-05T10:02:54.522Z,151389.00
2022-08-05T10:04:11.057Z,151313.28
2022-08-05T10:05:13.363Z,151134.88
2022-08-05T10:06:19.612Z,151226.47
2022-08-05T10:07:31.975Z,151088.50
2022-08-05T10:08:50.285Z,151075.03
2022-08-05T10:10:04.208Z,151123.91
2022-08-05T10:11:18.834Z,151266.81
2022-08-05T10:12:33.526Z,151269.28
2022-08-05T10:13:47.093Z,151336.50
2022-08-05T10:14:50.514Z,151315.72
2022-08-05T10:15:58.320Z,151309.63
2022-08-05T10:17:14.147Z,151402.47
2022-08-05T10:18:37.108Z,151332.78
2022-08-05T10:20:03.986Z,151357.25
2022-08-05T10:21:06.185Z,151379.25
2022-08-05T10:22:15.741Z,151452.59
2022-08-05T10:23:59.020Z,151651.88
2022-08-05T10:25:00.734Z,151695.88
2022-08-05T10:26:07.114Z,151799.88
2022-08-05T10:27:11.490Z,151599.28
2022-08-05T10:28:19.479Z,151469.72
2022-08-05T10:30:07.038Z,151528.34
2022-08-05T10:32:48.910Z,151530.78
2022-08-05T10:32:55.766Z,151479.50
2022-08-05T10:33:45.989Z,151584.63
2022-08-05T10:34:55.415Z,151601.78
2022-08-05T10:35:59.814Z,151633.56
2022-08-05T10:37:02.506Z,151552.81
2022-08-05T10:38:06.065Z,151750.94
2022-08-05T10:39:25.117Z,151841.44
2022-08-05T10:41:03.949Z,151894.06
2022-08-05T10:42:33.354Z,151816.97
2022-08-05T10:43:45.597Z,151832.91
2022-08-05T10:44:48.613Z,151856.09
2022-08-05T10:46:06.172Z,151885.50
2022-08-05T10:47:26.047Z,151941.78
2022-08-05T10:48:36.009Z,151949.13
2022-08-05T10:50:33.097Z,151939.34
2022-08-05T10:51:28.447Z,151863.44
2022-08-05T10:52:47.034Z,152048.25
2022-08-05T10:53:55.852Z,151995.63
2022-08-05T10:55:06.854Z,151901.44
2022-08-05T10:56:25.091Z,151865.94
2022-08-05T10:57:32.312Z,151912.44
2022-08-05T10:58:49.570Z,152037.25
2022-08-05T11:00:12.175Z,152169.47
2022-08-05T11:01:54.750Z,152291.81
2022-08-05T11:03:24.342Z,152220.84
2022-08-05T11:04:27.910Z,152300.47
2022-08-05T11:05:34.344Z,152278.38
2022-08-05T11:07:06.570Z,152240.44
2022-08-05T11:08:36.679Z,152144.94
2022-08-05T11:09:45.299Z,152304.13
2022-08-05T11:10:50.208Z,152218.41
2022-08-05T11:12:03.697Z,152299.22
2022-08-05T11:13:06.889Z,152369.03
2022-08-05T11:14:11.601Z,152005.41
2022-08-05T11:15:19.928Z,152108.22
2022-08-05T11:16:47.713Z,151993.16
2022-08-05T11:18:00.179Z,151976.03
2022-08-05T11:20:10.754Z,152006.63
2022-08-05T11:20:53.634Z,151991.94
2022-08-05T11:21:57.918Z,151989.47
2022-08-05T11:23:05.967Z,151934.47
2022-08-05T11:24:29.625Z,151917.31
2022-08-05T11:26:04.309Z,151814.53
2022-08-05T11:27:50.148Z,151977.25
2022-08-05T11:28:54.669Z,151969.94
2022-08-05T11:30:00.533Z,151960.13
2022-08-05T11:31:06.503Z,151846.34
2022-08-05T11:32:27.434Z,151989.47
2022-08-05T11:33:46.667Z,152001.75
2022-08-05T11:34:51.372Z,151853.66
2022-08-05T11:36:08.711Z,151907.53
2022-08-05T11:38:26.825Z,151887.97
2022-08-05T11:38:45.843Z,151802.31
2022-08-05T11:40:00.340Z,151706.91
2022-08-05T11:41:35.123Z,151785.19
2022-08-05T11:42:32.066Z,151863.44
2022-08-05T11:44:01.032Z,151851.22
2022-08-05T11:45:05.417Z,151933.25
2022-08-05T11:46:15.354Z,152011.50
2022-08-05T11:47:49.494Z,151956.44
2022-08-05T11:48:53.566Z,151853.66
2022-08-05T11:50:00.735Z,151853.66
2022-08-05T11:51:04.207Z,151920.97
2022-08-05T11:52:11.442Z,151919.75
2022-08-05T11:53:15.461Z,151843.91
2022-08-05T11:54:33.489Z,151938.13
2022-08-05T11:55:36.757Z,151890.41
2022-08-05T11:56:53.107Z,152088.63
2022-08-05T11:58:10.616Z,152080.06
2022-08-05T11:59:22.313Z,152328.63
2022-08-05T12:00:29.140Z,152348.19
2022-08-05T12:01:32.636Z,152289.38
2022-08-05T12:02:36.249Z,152531.94
2022-08-05T12:03:45.124Z,152431.47
2022-08-05T12:05:00.313Z,152694.88
2022-08-05T12:06:05.807Z,152696.09
2022-08-05T12:07:14.501Z,152241.66
2022-08-05T12:08:18.434Z,152261.28
2022-08-05T12:09:37.886Z,152584.63
2022-08-05T12:10:53.683Z,152452.31
2022-08-05T12:11:57.703Z,152364.13
2022-08-05T12:13:16.505Z,152524.59
2022-08-05T12:14:21.555Z,152762.31
2022-08-05T12:15:35.947Z,152701.00
2022-08-05T12:16:45.452Z,152394.75
2022-08-05T12:18:03.832Z,152529.47
2022-08-05T12:20:17.189Z,152828.47
2022-08-05T12:20:38.472Z,152726.78
2022-08-05T12:21:47.146Z,152872.63
2022-08-05T12:22:51.885Z,153022.22
2022-08-05T12:24:17.159Z,153166.91
2022-08-05T12:25:19.702Z,153152.22
2022-08-05T12:26:23.897Z,153228.25
2022-08-05T12:27:32.939Z,153279.75
2022-08-05T12:28:37.653Z,153341.13
2022-08-05T12:29:40.023Z,153002.59
2022-08-05T12:30:46.080Z,152927.78
2022-08-05T12:31:54.012Z,152621.34
2022-08-05T12:32:58.680Z,152550.28
2022-08-05T12:34:10.032Z,152552.72
2022-08-05T12:35:24.549Z,152639.75
2022-08-05T12:36:40.271Z,152762.31
2022-08-05T12:37:46.343Z,152665.47
2022-08-05T12:38:50.903Z,152750.03
2022-08-05T12:39:53.921Z,152457.19
2022-08-05T12:40:57.466Z,152507.44
2022-08-05T12:42:00.389Z,152318.81
2022-08-05T12:43:02.524Z,152191.47
2022-08-05T12:44:06.388Z,151944.22
2022-08-05T12:45:14.642Z,151999.28
2022-08-05T12:46:28.906Z,152069.06
2022-08-05T12:47:32.456Z,151884.28
2022-08-05T12:48:39.965Z,151917.31
2022-08-05T12:50:04.561Z,151916.09
2022-08-05T12:52:09.971Z,151810.88
2022-08-05T12:52:42.458Z,151802.31
2022-08-05T12:53:55.579Z,151905.09
2022-08-05T12:54:58.283Z,151896.50
2022-08-05T12:56:01.242Z,151830.41
2022-08-05T12:57:09.599Z,151963.81
2022-08-05T12:58:48.551Z,151905.09
2022-08-05T13:02:00.629Z,151704.47
2022-08-05T13:02:04.265Z,151807.22
2022-08-05T13:02:36.263Z,151919.75
2022-08-05T13:03:42.133Z,152103.34
2022-08-05T13:04:54.509Z,151944.22
2022-08-05T13:05:56.865Z,151930.78
2022-08-05T13:07:05.200Z,152230.66
2022-08-05T13:08:12.646Z,152021.34
2022-08-05T13:09:28.286Z,151900.22
2022-08-05T13:10:33.075Z,151886.72
2022-08-05T13:12:02.375Z,151820.66
2022-08-05T13:13:06.492Z,151823.09
2022-08-05T13:14:19.816Z,152022.56
2022-08-05T13:15:24.333Z,152032.38
2022-08-05T13:16:28.650Z,151978.47
2022-08-05T13:17:41.998Z,152010.28
2022-08-05T13:18:58.530Z,152408.19
2022-08-05T13:20:01.296Z,152441.31
2022-08-05T13:21:03.634Z,152250.22
2022-08-05T13:22:06.281Z,152245.31
2022-08-05T13:23:09.125Z,152228.22
2022-08-05T13:24:11.577Z,152382.47
2022-08-05T13:25:19.542Z,152426.59
2022-08-05T13:26:30.177Z,152332.31
2022-08-05T13:27:38.228Z,152291.81
2022-08-05T13:28:44.144Z,152365.34
2022-08-05T13:29:59.397Z,152340.88
2022-08-05T13:31:14.212Z,152355.53
2022-08-05T13:32:29.142Z,152455.97
2022-08-05T13:34:21.944Z,152367.81
2022-08-05T13:34:55.637Z,152044.59
2022-08-05T13:35:57.782Z,151922.19
2022-08-05T13:37:04.217Z,152099.66
2022-08-05T13:38:10.211Z,152267.38
2022-08-05T13:40:14.313Z,152238.00
2022-08-05T13:40:51.718Z,152120.44
2022-08-05T13:41:54.602Z,152282.03
2022-08-05T13:42:58.393Z,152175.56
2022-08-05T13:44:00.722Z,152383.69
2022-08-05T13:45:04.897Z,152316.38
2022-08-05T13:46:08.628Z,152191.47
2022-08-05T13:47:10.820Z,152249.00
2022-08-05T13:48:57.336Z,152086.19
2022-08-05T13:49:55.420Z,151889.19